createdAt,value
2018-03-11T00:03:22.428Z,17.57
2018-03-11T00:05:50.024Z,19.67
2018-03-11T00:08:17.585Z,23.53
2018-03-11T00:10:45.185Z,25.33
2018-03-11T00:13:12.797Z,24.53
2018-03-11T00:15:40.356Z,15.47
2018-03-11T00:18:08.174Z,15.60
2018-03-11T00:20:35.865Z,14.10
2018-03-11T00:23:03.440Z,13.77
2018-03-11T00:25:31.015Z,10.47
2018-03-11T00:27:58.654Z,12.83
2018-03-11T00:30:26.214Z,10.20
2018-03-11T00:32:53.767Z,12.40
2018-03-11T00:35:21.350Z,12.00
2018-03-11T00:37:49.124Z,12.23
2018-03-11T00:40:16.681Z,12.57
2018-03-11T00:42:44.261Z,12.90
2018-03-11T00:45:11.833Z,16.17
2018-03-11T00:47:39.390Z,16.57
2018-03-11T00:50:06.978Z,16.50
2018-03-11T00:52:34.538Z,14.80
2018-03-11T00:55:02.087Z,13.97
2018-03-11T00:57:29.683Z,15.70
2018-03-11T00:59:57.284Z,17.17
2018-03-11T01:02:24.950Z,15.93
2018-03-11T01:04:52.547Z,18.63
2018-03-11T01:07:20.303Z,18.70
2018-03-11T01:09:47.855Z,18.80
2018-03-11T01:12:15.456Z,17.60
2018-03-11T01:14:43.020Z,16.23
2018-03-11T01:17:10.578Z,17.00
2018-03-11T01:19:38.183Z,14.20
2018-03-11T01:22:05.733Z,14.63
2018-03-11T01:24:33.496Z,14.37
2018-03-11T01:27:01.180Z,12.47
2018-03-11T01:29:28.742Z,13.40
2018-03-11T01:31:56.292Z,12.27
2018-03-11T01:34:23.911Z,14.50
2018-03-11T01:36:51.478Z,12.37
2018-03-11T01:39:19.083Z,12.20
2018-03-11T01:41:46.675Z,13.10
2018-03-11T01:44:14.389Z,13.70
2018-03-11T01:46:41.966Z,11.90
2018-03-11T01:49:09.731Z,13.00
2018-03-11T01:51:37.304Z,13.37
2018-03-11T01:54:04.868Z,14.77
2018-03-11T01:56:32.485Z,13.00
2018-03-11T01:59:00.045Z,14.20
2018-03-11T02:01:27.630Z,13.00
2018-03-11T02:03:55.269Z,14.93
2018-03-11T02:06:22.851Z,14.97
2018-03-11T02:08:50.418Z,15.80
2018-03-11T02:11:18.078Z,15.23
2018-03-11T02:13:45.927Z,17.13
2018-03-11T02:16:13.575Z,15.70
2018-03-11T02:18:41.267Z,14.70
2018-03-11T02:21:17.490Z,14.50
2018-03-11T02:23:45.131Z,14.63
2018-03-11T02:26:12.701Z,13.90
2018-03-11T02:28:40.258Z,15.20
2018-03-11T02:31:07.959Z,15.20
2018-03-11T02:33:35.542Z,14.60
2018-03-11T02:36:03.110Z,12.23
2018-03-11T02:38:30.706Z,13.90
2018-03-11T02:40:58.260Z,12.20
2018-03-11T02:43:25.818Z,15.37
2018-03-11T02:45:53.431Z,12.57
2018-03-11T02:48:20.983Z,12.83
2018-03-11T02:50:48.553Z,12.23
2018-03-11T02:53:16.171Z,12.80
2018-03-11T02:55:43.961Z,14.27
2018-03-11T02:58:11.506Z,14.33
2018-03-11T03:00:39.293Z,15.67
2018-03-11T03:03:06.844Z,13.60
2018-03-11T03:05:34.411Z,14.60
2018-03-11T03:08:02.013Z,14.90
2018-03-11T03:10:29.563Z,15.07
2018-03-11T03:12:57.142Z,16.03
2018-03-11T03:15:24.755Z,15.00
2018-03-11T03:17:52.322Z,14.10
2018-03-11T03:20:19.966Z,14.20
2018-03-11T03:22:47.651Z,13.27
2018-03-11T03:25:15.313Z,13.70
2018-03-11T03:27:42.942Z,12.57
2018-03-11T03:30:10.640Z,13.10
2018-03-11T03:32:38.300Z,13.67
2018-03-11T03:35:05.868Z,11.80
2018-03-11T03:37:33.488Z,13.70
2018-03-11T03:40:01.090Z,13.40
2018-03-11T03:42:28.661Z,12.60
2018-03-11T03:44:56.268Z,13.33
2018-03-11T03:47:23.832Z,12.07
2018-03-11T03:49:51.402Z,16.00
2018-03-11T03:52:18.996Z,13.50
2018-03-11T03:54:46.643Z,12.30
2018-03-11T03:57:14.211Z,12.97
2018-03-11T03:59:41.805Z,14.33
2018-03-11T04:02:09.380Z,12.07
2018-03-11T04:04:36.946Z,14.70
2018-03-11T04:07:10.434Z,15.03
2018-03-11T04:09:38.007Z,14.30
2018-03-11T04:12:05.587Z,18.30
2018-03-11T04:14:33.197Z,19.00
2018-03-11T04:17:00.924Z,17.97
2018-03-11T04:19:28.530Z,17.40
2018-03-11T04:21:56.221Z,18.23
2018-03-11T04:24:23.904Z,16.67
2018-03-11T04:26:51.467Z,14.93
2018-03-11T04:29:19.068Z,15.50
2018-03-11T04:31:46.676Z,17.77
2018-03-11T04:34:14.236Z,16.13
2018-03-11T04:36:42.217Z,14.67
2018-03-11T04:39:09.792Z,15.57
2018-03-11T04:41:37.350Z,15.07
2018-03-11T04:44:04.989Z,14.07
2018-03-11T04:46:32.543Z,14.10
2018-03-11T04:49:00.098Z,14.23
2018-03-11T04:51:27.704Z,15.00
2018-03-11T04:53:55.437Z,14.90
2018-03-11T04:56:23.087Z,14.40
2018-03-11T04:58:50.695Z,12.70
2018-03-11T05:01:18.257Z,14.00
2018-03-11T05:03:45.846Z,14.70
2018-03-11T05:06:13.446Z,16.83
2018-03-11T05:08:41.003Z,13.50
2018-03-11T05:11:08.567Z,17.57
2018-03-11T05:13:36.173Z,16.40
2018-03-11T05:16:03.796Z,14.13
2018-03-11T05:18:31.353Z,14.40
2018-03-11T05:20:58.975Z,14.40
2018-03-11T05:23:26.659Z,14.13
2018-03-11T05:25:54.224Z,13.63
2018-03-11T05:28:21.909Z,13.13
2018-03-11T05:30:49.545Z,15.20
2018-03-11T05:33:17.225Z,13.90
2018-03-11T05:35:44.822Z,15.80
2018-03-11T05:38:12.390Z,17.93
2018-03-11T05:40:39.959Z,16.90
2018-03-11T05:43:07.551Z,16.03
2018-03-11T05:45:35.109Z,24.97
2018-03-11T05:48:02.690Z,18.33
2018-03-11T05:50:30.293Z,18.67
2018-03-11T05:52:57.895Z,17.47
2018-03-11T05:55:25.454Z,20.90
2018-03-11T05:57:53.047Z,20.27
2018-03-11T06:00:20.688Z,16.67
2018-03-11T06:02:48.253Z,17.37
2018-03-11T06:05:15.852Z,16.87
2018-03-11T06:07:43.408Z,15.30
2018-03-11T06:10:10.965Z,12.80
2018-03-11T06:12:38.784Z,12.40
2018-03-11T06:15:06.335Z,12.73
2018-03-11T06:17:33.887Z,11.73
2018-03-11T06:20:01.511Z,11.90
2018-03-11T06:22:29.082Z,12.40
2018-03-11T06:24:56.730Z,13.43
2018-03-11T06:27:24.354Z,12.03
2018-03-11T06:29:51.926Z,12.07
2018-03-11T06:32:19.506Z,13.73
2018-03-11T06:34:47.185Z,14.70
2018-03-11T06:37:14.806Z,13.20
2018-03-11T06:39:42.455Z,14.03
2018-03-11T06:42:10.049Z,17.30
2018-03-11T06:44:37.610Z,13.67
2018-03-11T06:47:05.171Z,15.83
2018-03-11T06:49:32.758Z,15.73
2018-03-11T06:52:00.306Z,14.47
2018-03-11T06:54:27.867Z,14.83
2018-03-11T06:56:55.486Z,14.80
2018-03-11T06:59:23.053Z,13.90
2018-03-11T07:01:50.615Z,13.90
2018-03-11T07:04:18.228Z,13.70
2018-03-11T07:06:45.801Z,15.20
2018-03-11T07:09:13.346Z,14.37
2018-03-11T07:11:40.936Z,15.47
2018-03-11T07:14:08.512Z,14.90
2018-03-11T07:16:36.097Z,15.40
2018-03-11T07:19:03.687Z,13.93
2018-03-11T07:21:31.264Z,14.07
2018-03-11T07:23:58.846Z,14.30
2018-03-11T07:26:26.433Z,14.93
2018-03-11T07:28:54.164Z,15.23
2018-03-11T07:31:21.828Z,16.13
2018-03-11T07:33:49.484Z,15.98
2018-03-11T07:36:17.051Z,15.83
2018-03-11T07:38:44.651Z,15.90
2018-03-11T07:41:12.273Z,16.10
2018-03-11T07:43:39.848Z,15.83
2018-03-11T07:46:07.442Z,13.67
2018-03-11T07:48:35.008Z,17.00
2018-03-11T07:51:02.564Z,14.80
2018-03-11T07:53:30.175Z,13.10
2018-03-11T07:55:57.736Z,12.23
2018-03-11T07:58:25.288Z,10.50
2018-03-11T08:00:52.900Z,10.13
2018-03-11T08:03:20.472Z,8.60
2018-03-11T08:05:48.036Z,9.70
2018-03-11T08:08:15.636Z,7.90
2018-03-11T08:10:43.216Z,10.10
2018-03-11T08:13:10.780Z,11.90
2018-03-11T08:15:38.385Z,12.67
2018-03-11T08:18:05.955Z,11.30
2018-03-11T08:20:33.525Z,11.53
2018-03-11T08:23:01.181Z,12.97
2018-03-11T08:25:28.822Z,13.50
2018-03-11T08:27:56.387Z,9.97
2018-03-11T08:30:23.986Z,10.20
2018-03-11T08:32:51.558Z,8.47
2018-03-11T08:35:19.109Z,7.60
2018-03-11T08:37:46.708Z,5.60
2018-03-11T08:40:14.275Z,5.50
2018-03-11T08:42:41.839Z,5.10
2018-03-11T08:45:09.516Z,5.90
2018-03-11T08:47:37.085Z,6.13
2018-03-11T08:50:04.656Z,5.43
2018-03-11T08:52:32.235Z,5.00
2018-03-11T08:54:59.780Z,3.53
2018-03-11T08:57:27.335Z,2.03
2018-03-11T08:59:54.930Z,2.83
2018-03-11T09:02:22.474Z,3.40
2018-03-11T09:04:50.036Z,2.87
2018-03-11T09:07:17.616Z,4.20
2018-03-11T09:09:45.178Z,4.47
2018-03-11T09:12:12.750Z,4.40
2018-03-11T09:14:40.350Z,3.67
2018-03-11T09:17:07.917Z,4.53
2018-03-11T09:19:35.496Z,3.97
2018-03-11T09:22:03.101Z,2.37
2018-03-11T09:24:30.793Z,2.70
2018-03-11T09:26:58.453Z,2.10
2018-03-11T09:29:26.044Z,4.93
2018-03-11T09:31:53.608Z,2.90
2018-03-11T09:34:21.178Z,3.63
2018-03-11T09:36:48.767Z,1.50
2018-03-11T09:39:16.374Z,1.73
2018-03-11T09:41:44.046Z,1.40
2018-03-11T09:44:11.631Z,1.57
2018-03-11T09:46:39.190Z,2.30
2018-03-11T09:49:06.773Z,2.23
2018-03-11T09:51:34.366Z,3.00
2018-03-11T09:54:01.919Z,1.87
2018-03-11T09:56:29.459Z,1.80
2018-03-11T09:58:57.071Z,3.60
2018-03-11T10:01:24.716Z,2.37
2018-03-11T10:03:52.371Z,2.07
2018-03-11T10:06:19.964Z,2.10
2018-03-11T10:08:47.530Z,2.03
2018-03-11T10:11:15.098Z,1.70
2018-03-11T10:13:42.694Z,3.30
2018-03-11T10:16:10.248Z,1.63
2018-03-11T10:18:37.800Z,2.80
2018-03-11T10:21:05.386Z,2.30
2018-03-11T10:23:32.920Z,2.67
2018-03-11T10:26:00.467Z,2.50
2018-03-11T10:28:28.043Z,2.27
2018-03-11T10:30:55.591Z,2.73
2018-03-11T10:33:23.153Z,1.90
2018-03-11T10:35:50.950Z,3.13
2018-03-11T10:38:18.491Z,2.20
2018-03-11T10:40:46.049Z,2.60
2018-03-11T10:43:13.655Z,3.43
2018-03-11T10:45:41.416Z,2.13
2018-03-11T10:48:09.008Z,2.37
2018-03-11T10:50:36.684Z,2.20
2018-03-11T10:53:04.225Z,2.40
2018-03-11T10:55:31.772Z,2.50
2018-03-11T10:57:59.354Z,3.50
2018-03-11T11:00:27.900Z,2.60
2018-03-11T11:03:01.348Z,2.37
2018-03-11T11:05:29.059Z,2.87
2018-03-11T11:07:56.618Z,3.17
2018-03-11T11:10:24.204Z,2.70
2018-03-11T11:12:51.751Z,2.60
2018-03-11T11:15:19.312Z,2.17
2018-03-11T11:17:46.920Z,2.37
2018-03-11T11:20:14.484Z,3.90
2018-03-11T11:22:42.042Z,2.70
2018-03-11T11:25:09.641Z,3.37
2018-03-11T11:27:37.325Z,2.83
2018-03-11T11:30:04.893Z,1.87
2018-03-11T11:32:32.561Z,2.23
2018-03-11T11:35:00.101Z,2.47
2018-03-11T11:37:27.647Z,2.10
2018-03-11T11:39:55.228Z,2.50
2018-03-11T11:42:22.777Z,2.10
2018-03-11T11:44:50.336Z,2.33
2018-03-11T11:47:18.026Z,2.90
2018-03-11T11:49:45.589Z,3.50
2018-03-11T11:52:13.143Z,3.70
2018-03-11T11:54:40.727Z,3.47
2018-03-11T11:57:08.300Z,3.40
2018-03-11T11:59:35.849Z,3.03
2018-03-11T12:02:03.458Z,2.50
2018-03-11T12:04:31.029Z,1.83
2018-03-11T12:06:58.586Z,3.50
2018-03-11T12:09:26.190Z,2.40
2018-03-11T12:11:53.770Z,1.90
2018-03-11T12:14:21.332Z,2.50
2018-03-11T12:16:48.931Z,5.20
2018-03-11T12:19:16.492Z,2.13
2018-03-11T12:21:44.041Z,2.00
2018-03-11T12:24:11.698Z,2.43
2018-03-11T12:26:39.371Z,2.13
2018-03-11T12:29:06.945Z,4.10
2018-03-11T12:31:34.670Z,2.03
2018-03-11T12:34:02.384Z,2.33
2018-03-11T12:36:30.010Z,2.47
2018-03-11T12:38:57.602Z,1.80
2018-03-11T12:41:25.164Z,2.10
2018-03-11T12:43:52.724Z,2.07
2018-03-11T12:46:20.360Z,2.60
2018-03-11T12:48:47.921Z,2.60
2018-03-11T12:51:15.488Z,2.10
2018-03-11T12:53:43.141Z,2.00
2018-03-11T12:56:10.694Z,3.27
2018-03-11T12:58:38.239Z,2.10
2018-03-11T13:01:05.873Z,2.40
2018-03-11T13:03:33.475Z,2.20
2018-03-11T13:06:01.131Z,2.97
2018-03-11T13:08:28.701Z,2.00
2018-03-11T13:10:56.305Z,2.23
2018-03-11T13:13:23.867Z,2.90
2018-03-11T13:15:51.459Z,2.43
2018-03-11T13:18:19.236Z,1.60
2018-03-11T13:20:58.605Z,2.20
2018-03-11T13:23:26.153Z,3.03
2018-03-11T13:25:53.728Z,2.07
2018-03-11T13:28:33.203Z,2.63
2018-03-11T13:31:00.780Z,3.40
2018-03-11T13:33:40.212Z,3.80
2018-03-11T13:36:07.928Z,2.93
2018-03-11T13:38:47.353Z,2.77
2018-03-11T13:41:15.086Z,2.53
2018-03-11T13:43:42.653Z,2.60
2018-03-11T13:46:22.089Z,5.30
2018-03-11T13:48:49.654Z,2.60
2018-03-11T13:51:29.069Z,2.23
2018-03-11T13:53:56.730Z,3.57
2018-03-11T13:56:24.283Z,2.47
2018-03-11T13:58:51.885Z,3.27
2018-03-11T14:01:19.456Z,2.57
2018-03-11T14:03:47.195Z,4.43
2018-03-11T14:06:15.283Z,3.70
2018-03-11T14:08:43.355Z,3.10
2018-03-11T14:11:10.919Z,2.73
2018-03-11T14:13:38.674Z,2.60
2018-03-11T14:16:06.227Z,3.20
2018-03-11T14:18:33.997Z,4.77
2018-03-11T14:21:01.920Z,4.03
2018-03-11T14:23:29.466Z,4.07
2018-03-11T14:25:57.031Z,2.27
2018-03-11T14:28:24.642Z,3.50
2018-03-11T14:30:52.208Z,8.57
2018-03-11T14:33:20.189Z,2.83
2018-03-11T14:35:47.833Z,4.97
2018-03-11T14:38:16.514Z,3.57
2018-03-11T14:40:44.403Z,3.67
2018-03-11T14:43:12.700Z,3.37
2018-03-11T14:45:41.140Z,5.83
2018-03-11T14:48:09.146Z,4.00
2018-03-11T14:50:36.805Z,4.83
2018-03-11T14:53:04.655Z,4.77
2018-03-11T14:55:32.241Z,3.97
2018-03-11T14:58:00.082Z,4.40
2018-03-11T15:00:27.688Z,4.67
2018-03-11T15:02:55.286Z,3.10
2018-03-11T15:05:22.893Z,4.17
2018-03-11T15:07:51.544Z,4.33
2018-03-11T15:10:19.413Z,3.53
2018-03-11T15:12:47.832Z,4.30
2018-03-11T15:15:15.386Z,4.80
2018-03-11T15:17:43.031Z,4.23
2018-03-11T15:20:10.615Z,4.63
2018-03-11T15:22:38.208Z,4.33
2018-03-11T15:25:05.782Z,4.13
2018-03-11T15:27:33.392Z,6.37
2018-03-11T15:30:01.238Z,5.50
2018-03-11T15:32:29.041Z,7.10
2018-03-11T15:34:57.090Z,5.80
2018-03-11T15:37:24.697Z,9.37
2018-03-11T15:39:52.375Z,6.57
2018-03-11T15:42:20.644Z,5.60
2018-03-11T15:44:48.523Z,8.00
2018-03-11T15:47:16.276Z,5.70
2018-03-11T15:49:44.482Z,6.30
2018-03-11T15:52:12.053Z,4.63
2018-03-11T15:54:39.910Z,5.20
2018-03-11T15:57:07.943Z,3.90
2018-03-11T15:59:35.926Z,4.07
2018-03-11T16:02:04.604Z,5.80
2018-03-11T16:04:33.375Z,27.40
2018-03-11T16:07:01.645Z,44.33
2018-03-11T16:09:29.854Z,17.53
2018-03-11T16:11:57.525Z,10.13
2018-03-11T16:14:25.687Z,9.10
2018-03-11T16:16:53.290Z,9.80
2018-03-11T16:19:21.651Z,9.80
2018-03-11T16:21:49.880Z,8.93
2018-03-11T16:24:28.280Z,12.00
2018-03-11T16:26:45.063Z,18.47
2018-03-11T16:29:12.621Z,9.80
2018-03-11T16:31:40.207Z,26.37
2018-03-11T16:34:08.158Z,20.40
2018-03-11T16:36:35.717Z,37.93
2018-03-11T16:39:03.427Z,21.63
2018-03-11T16:41:31.422Z,18.23
2018-03-11T16:43:59.419Z,24.50
2018-03-11T16:46:27.278Z,47.73
2018-03-11T16:48:55.824Z,101.10
2018-03-11T16:51:24.264Z,61.50
2018-03-11T16:53:51.961Z,35.03
2018-03-11T16:56:20.700Z,22.03
2018-03-11T16:58:48.536Z,13.97
2018-03-11T17:01:16.122Z,14.37
2018-03-11T17:03:43.728Z,8.43
2018-03-11T17:06:11.423Z,7.90
2018-03-11T17:08:39.689Z,7.63
2018-03-11T17:11:07.350Z,10.27
2018-03-11T17:13:35.666Z,7.77
2018-03-11T17:16:03.287Z,12.47
2018-03-11T17:18:31.875Z,16.40
2018-03-11T17:20:59.447Z,10.93
2018-03-11T17:23:27.413Z,11.80
2018-03-11T17:25:56.459Z,9.80
2018-03-11T17:28:24.700Z,9.40
2018-03-11T17:30:52.714Z,11.17
2018-03-11T17:33:21.158Z,17.37
2018-03-11T17:35:49.336Z,15.30
2018-03-11T17:38:17.567Z,12.17
2018-03-11T17:40:46.161Z,10.73
2018-03-11T17:43:14.265Z,13.80
2018-03-11T17:45:42.559Z,24.00
2018-03-11T17:48:10.819Z,23.80
2018-03-11T17:50:39.339Z,25.70
2018-03-11T17:53:07.497Z,19.80
2018-03-11T17:55:35.492Z,20.30
2018-03-11T17:58:03.932Z,21.40
2018-03-11T18:00:31.865Z,12.13
2018-03-11T18:02:59.507Z,13.97
2018-03-11T18:05:27.184Z,12.73
2018-03-11T18:07:56.094Z,8.73
2018-03-11T18:10:24.384Z,11.23
2018-03-11T18:12:51.958Z,14.20
2018-03-11T18:15:20.561Z,15.97
2018-03-11T18:17:48.388Z,16.90
2018-03-11T18:20:16.289Z,19.93
2018-03-11T18:22:43.886Z,39.47
2018-03-11T18:25:11.965Z,15.83
2018-03-11T18:27:39.997Z,23.27
2018-03-11T18:30:07.761Z,57.73
2018-03-11T18:32:35.390Z,25.67
2018-03-11T18:35:03.799Z,30.00
2018-03-11T18:37:32.292Z,38.73
2018-03-11T18:40:00.888Z,19.20
2018-03-11T18:42:29.166Z,32.60
2018-03-11T18:44:57.404Z,14.40
2018-03-11T18:47:25.466Z,13.23
2018-03-11T18:49:54.195Z,14.93
2018-03-11T18:52:22.594Z,21.97
2018-03-11T18:54:50.900Z,55.77
2018-03-11T18:57:18.823Z,29.70
2018-03-11T18:59:47.822Z,92.73
2018-03-11T19:02:16.100Z,22.13
2018-03-11T19:04:44.588Z,21.00
2018-03-11T19:07:13.104Z,18.63
2018-03-11T19:09:41.667Z,16.33
2018-03-11T19:12:09.629Z,14.97
2018-03-11T19:14:37.699Z,27.80
2018-03-11T19:17:05.910Z,12.77
2018-03-11T19:19:33.732Z,16.60
2018-03-11T19:22:02.359Z,36.23
2018-03-11T19:24:33.198Z,53.40
2018-03-11T19:27:00.769Z,35.10
2018-03-11T19:29:28.807Z,50.03
2018-03-11T19:31:56.960Z,42.03
2018-03-11T19:34:24.765Z,65.70
2018-03-11T19:36:52.319Z,29.20
2018-03-11T19:39:20.645Z,23.60
2018-03-11T19:41:48.727Z,62.67
2018-03-11T19:44:17.034Z,19.90
2018-03-11T19:46:44.671Z,31.83
2018-03-11T19:49:12.715Z,43.00
2018-03-11T19:51:40.829Z,29.13
2018-03-11T19:54:09.013Z,59.13
2018-03-11T19:56:36.975Z,21.83
2018-03-11T19:59:04.556Z,25.47
2018-03-11T20:01:32.827Z,35.10
2018-03-11T20:04:00.879Z,23.60
2018-03-11T20:06:28.439Z,21.80
2018-03-11T20:08:56.038Z,23.23
2018-03-11T20:11:23.595Z,43.03
2018-03-11T20:13:51.731Z,34.37
2018-03-11T20:16:19.364Z,21.17
2018-03-11T20:18:46.964Z,22.07
2018-03-11T20:21:14.706Z,20.87
2018-03-11T20:23:42.318Z,18.10
2018-03-11T20:26:10.228Z,16.63
2018-03-11T20:28:37.793Z,18.20
2018-03-11T20:31:05.393Z,18.37
2018-03-11T20:33:33.743Z,18.77
2018-03-11T20:36:01.338Z,26.97
2018-03-11T20:38:28.940Z,18.20
2018-03-11T20:40:56.515Z,21.47
2018-03-11T20:43:24.369Z,37.80
2018-03-11T20:45:51.982Z,32.50
2018-03-11T20:48:19.619Z,26.53
2018-03-11T20:50:47.117Z,29.03
2018-03-11T20:53:14.713Z,29.63
2018-03-11T20:55:42.283Z,27.70
2018-03-11T20:58:10.023Z,19.27
2018-03-11T21:00:37.697Z,24.17
2018-03-11T21:03:05.259Z,21.97
2018-03-11T21:05:32.823Z,25.63
2018-03-11T21:08:00.426Z,22.67
2018-03-11T21:10:27.973Z,25.37
2018-03-11T21:12:55.526Z,25.47
2018-03-11T21:15:23.254Z,18.20
2018-03-11T21:17:50.806Z,18.17
2018-03-11T21:20:18.383Z,38.17
2018-03-11T21:22:46.045Z,38.77
2018-03-11T21:25:13.719Z,28.37
2018-03-11T21:27:41.275Z,26.20
2018-03-11T21:30:08.868Z,26.80
2018-03-11T21:32:36.434Z,31.47
2018-03-11T21:35:04.122Z,33.10
2018-03-11T21:37:31.731Z,37.07
2018-03-11T21:39:59.291Z,34.00
2018-03-11T21:42:26.845Z,33.90
2018-03-11T21:44:54.564Z,32.10
2018-03-11T21:47:22.252Z,32.33
2018-03-11T21:49:49.829Z,30.20
2018-03-11T21:52:17.592Z,20.33
2018-03-11T21:54:45.234Z,21.60
2018-03-11T21:57:12.897Z,20.90
2018-03-11T21:59:40.480Z,18.70
2018-03-11T22:02:08.053Z,20.33
2018-03-11T22:04:35.615Z,19.83
2018-03-11T22:07:03.222Z,22.87
2018-03-11T22:09:30.792Z,27.73
2018-03-11T22:11:58.354Z,23.70
2018-03-11T22:14:25.960Z,21.60
2018-03-11T22:16:53.561Z,22.07
2018-03-11T22:19:21.252Z,20.23
2018-03-11T22:21:48.868Z,19.50
2018-03-11T22:24:16.420Z,17.20
2018-03-11T22:26:43.975Z,15.70
2018-03-11T22:29:11.625Z,17.20
2018-03-11T22:31:39.191Z,14.90
2018-03-11T22:34:06.751Z,15.70
2018-03-11T22:36:34.350Z,15.67
2018-03-11T22:39:01.915Z,15.30
2018-03-11T22:41:29.478Z,17.10
2018-03-11T22:43:57.087Z,16.60
2018-03-11T22:46:24.736Z,16.30
2018-03-11T22:48:52.281Z,15.83
2018-03-11T22:51:19.903Z,15.63
2018-03-11T22:53:47.460Z,15.30
2018-03-11T22:56:15.151Z,14.83
2018-03-11T22:58:42.818Z,14.90
2018-03-11T23:01:10.478Z,15.30
2018-03-11T23:03:38.057Z,15.73
2018-03-11T23:06:05.664Z,16.47
2018-03-11T23:08:33.267Z,16.03
2018-03-11T23:11:00.840Z,16.07
2018-03-11T23:13:28.449Z,15.80
2018-03-11T23:15:56.023Z,15.70
2018-03-11T23:18:23.705Z,15.13
2018-03-11T23:20:51.361Z,14.30
2018-03-11T23:23:18.927Z,14.80
2018-03-11T23:25:46.695Z,13.80
2018-03-11T23:28:14.304Z,15.50
2018-03-11T23:30:41.856Z,16.13
2018-03-11T23:33:09.423Z,17.23
2018-03-11T23:35:37.030Z,16.43
2018-03-11T23:38:04.816Z,17.67
2018-03-11T23:40:32.387Z,16.80
2018-03-11T23:43:00.115Z,15.40
2018-03-11T23:45:27.682Z,17.27
2018-03-11T23:47:55.268Z,15.70
2018-03-11T23:50:22.893Z,17.53
2018-03-11T23:52:50.559Z,15.50
2018-03-11T23:55:18.119Z,16.33
2018-03-11T23:57:45.706Z,17.93
